createdAt,value
2019-05-05T00:02:04.887Z,3.00
2019-05-05T00:04:45.520Z,3.10
2019-05-05T00:07:15.824Z,3.00
2019-05-05T00:09:44.995Z,3.10
2019-05-05T00:12:21.247Z,3.10
2019-05-05T00:14:51.653Z,3.00
2019-05-05T00:17:21.723Z,3.00
2019-05-05T00:19:50.254Z,3.00
2019-05-05T00:22:19.103Z,3.00
2019-05-05T00:24:47.618Z,3.00
2019-05-05T00:27:16.075Z,2.90
2019-05-05T00:29:45.347Z,3.00
2019-05-05T00:32:15.264Z,2.90
2019-05-05T00:34:44.603Z,2.90
2019-05-05T00:37:15.231Z,2.90
2019-05-05T00:39:45.169Z,3.00
2019-05-05T00:42:15.407Z,2.90
2019-05-05T00:44:44.788Z,2.90
2019-05-05T00:47:25.067Z,2.80
2019-05-05T00:49:56.151Z,2.80
2019-05-05T00:52:24.583Z,2.80
2019-05-05T00:54:55.446Z,2.90
2019-05-05T00:57:24.318Z,2.90
2019-05-05T00:59:54.394Z,2.90
2019-05-05T01:02:27.606Z,3.00
2019-05-05T01:05:00.680Z,2.90
2019-05-05T01:07:29.182Z,2.90
2019-05-05T01:09:57.777Z,3.00
2019-05-05T01:12:26.799Z,2.90
2019-05-05T01:14:55.401Z,2.90
2019-05-05T01:17:25.330Z,3.00
2019-05-05T01:20:03.412Z,2.90
2019-05-05T01:22:25.086Z,2.90
2019-05-05T01:24:55.457Z,2.90
2019-05-05T01:27:25.465Z,2.80
2019-05-05T01:29:54.674Z,2.80
2019-05-05T01:32:28.203Z,2.80
2019-05-05T01:34:57.007Z,2.80
2019-05-05T01:37:29.881Z,2.80
2019-05-05T01:39:59.254Z,2.90
2019-05-05T01:42:27.972Z,2.80
2019-05-05T01:44:56.475Z,2.80
2019-05-05T01:47:25.461Z,2.80
2019-05-05T01:49:54.635Z,2.80
2019-05-05T01:52:25.262Z,2.80
2019-05-05T01:54:54.808Z,2.90
2019-05-05T01:57:25.205Z,2.90
2019-05-05T01:59:55.210Z,2.80
2019-05-05T02:02:25.104Z,2.80
2019-05-05T02:04:55.347Z,2.90
2019-05-05T02:07:25.031Z,2.80
2019-05-05T02:09:55.345Z,2.80
2019-05-05T02:12:24.652Z,2.80
2019-05-05T02:14:55.111Z,2.70
2019-05-05T02:17:24.721Z,2.70
2019-05-05T02:19:54.941Z,2.70
2019-05-05T02:22:25.228Z,2.70
2019-05-05T02:24:55.089Z,2.70
2019-05-05T02:27:25.168Z,2.60
2019-05-05T02:29:55.709Z,2.60
2019-05-05T02:32:26.024Z,2.60
2019-05-05T02:34:59.288Z,2.60
2019-05-05T02:37:27.856Z,2.60
2019-05-05T02:40:02.471Z,2.60
2019-05-05T02:42:27.608Z,2.60
2019-05-05T02:44:59.235Z,2.50
2019-05-05T02:47:38.325Z,2.50
2019-05-05T02:50:07.869Z,2.50
2019-05-05T02:52:39.310Z,2.50
2019-05-05T02:55:09.151Z,2.40
2019-05-05T02:57:37.725Z,2.50
2019-05-05T03:00:20.986Z,2.40
2019-05-05T03:02:49.479Z,2.40
2019-05-05T03:05:18.047Z,2.40
2019-05-05T03:07:47.054Z,2.40
2019-05-05T03:10:15.727Z,2.30
2019-05-05T03:12:45.087Z,2.30
2019-05-05T03:15:28.727Z,2.30
2019-05-05T03:17:57.312Z,2.30
2019-05-05T03:20:25.891Z,2.30
2019-05-05T03:22:54.407Z,2.20
2019-05-05T03:25:24.162Z,2.20
2019-05-05T03:27:53.764Z,2.20
2019-05-05T03:30:25.784Z,2.20
2019-05-05T03:32:55.697Z,2.20
2019-05-05T03:35:24.087Z,2.20
2019-05-05T03:37:54.478Z,2.30
2019-05-05T03:40:24.848Z,2.20
2019-05-05T03:42:57.918Z,2.20
2019-05-05T03:45:37.693Z,2.20
2019-05-05T03:48:06.364Z,2.20
2019-05-05T03:50:35.549Z,2.20
2019-05-05T03:53:04.917Z,2.20
2019-05-05T03:55:34.619Z,2.20
2019-05-05T03:58:04.090Z,2.20
2019-05-05T04:00:54.910Z,2.20
2019-05-05T04:03:23.745Z,2.30
2019-05-05T04:05:56.755Z,2.30
2019-05-05T04:08:24.767Z,2.40
2019-05-05T04:10:54.670Z,2.40
2019-05-05T04:13:24.255Z,2.50
2019-05-05T04:15:54.486Z,2.50
2019-05-05T04:18:24.564Z,2.50
2019-05-05T04:20:53.500Z,2.60
2019-05-05T04:23:21.986Z,2.60
2019-05-05T04:25:50.555Z,2.60
2019-05-05T04:28:18.996Z,2.60
2019-05-05T04:30:47.449Z,2.70
2019-05-05T04:33:15.878Z,2.70
2019-05-05T04:35:44.551Z,2.80
2019-05-05T04:38:13.870Z,2.90
2019-05-05T04:40:43.532Z,2.90
2019-05-05T04:43:14.269Z,3.00
2019-05-05T04:45:43.587Z,3.00
2019-05-05T04:48:13.921Z,3.10
2019-05-05T04:50:47.352Z,3.10
2019-05-05T04:53:24.114Z,3.10
2019-05-05T04:55:53.618Z,3.10
2019-05-05T04:58:24.150Z,3.20
2019-05-05T05:00:54.548Z,3.20
2019-05-05T05:03:39.806Z,3.30
2019-05-05T05:06:15.882Z,3.30
2019-05-05T05:08:44.537Z,3.30
2019-05-05T05:11:14.163Z,3.30
2019-05-05T05:13:44.021Z,3.30
2019-05-05T05:16:13.887Z,3.40
2019-05-05T05:18:44.570Z,3.40
2019-05-05T05:21:14.498Z,3.50
2019-05-05T05:23:44.360Z,3.70
2019-05-05T05:26:13.936Z,3.70
2019-05-05T05:28:44.603Z,3.80
2019-05-05T05:31:14.060Z,3.80
2019-05-05T05:33:43.679Z,4.00
2019-05-05T05:36:14.275Z,4.10
2019-05-05T05:38:44.219Z,4.20
2019-05-05T05:41:14.223Z,4.30
2019-05-05T05:43:56.629Z,4.20
2019-05-05T05:46:43.808Z,4.30
2019-05-05T05:49:19.259Z,4.40
2019-05-05T05:51:47.703Z,4.50
2019-05-05T05:54:19.045Z,4.50
2019-05-05T05:56:47.823Z,4.60
2019-05-05T05:59:16.715Z,4.60
2019-05-05T06:01:45.219Z,4.70
2019-05-05T06:04:14.510Z,4.70
2019-05-05T06:06:43.891Z,4.70
2019-05-05T06:09:14.669Z,4.70
2019-05-05T06:11:43.675Z,4.60
2019-05-05T06:14:14.432Z,4.60
2019-05-05T06:16:44.492Z,4.80
2019-05-05T06:19:14.062Z,5.00
2019-05-05T06:21:43.991Z,5.00
2019-05-05T06:24:13.631Z,5.20
2019-05-05T06:26:44.389Z,5.10
2019-05-05T06:29:14.432Z,5.10
2019-05-05T06:31:44.545Z,5.00
2019-05-05T06:34:13.974Z,5.10
2019-05-05T06:36:44.484Z,5.10
2019-05-05T06:39:13.640Z,5.00
2019-05-05T06:41:49.774Z,5.30
2019-05-05T06:44:24.713Z,5.10
2019-05-05T06:46:57.634Z,5.00
2019-05-05T06:49:26.165Z,5.20
2019-05-05T06:51:54.826Z,5.30
2019-05-05T06:54:24.232Z,5.30
2019-05-05T06:56:53.861Z,5.50
2019-05-05T06:59:24.383Z,5.40
2019-05-05T07:01:53.612Z,5.50
2019-05-05T07:04:24.413Z,5.50
2019-05-05T07:06:56.704Z,5.70
2019-05-05T07:09:24.483Z,5.50
2019-05-05T07:11:54.101Z,5.80
2019-05-05T07:14:23.640Z,5.70
2019-05-05T07:16:54.325Z,5.70
2019-05-05T07:19:23.953Z,5.70
2019-05-05T07:21:53.828Z,5.80
2019-05-05T07:24:23.890Z,6.00
2019-05-05T07:26:54.105Z,6.20
2019-05-05T07:29:23.953Z,6.40
2019-05-05T07:31:54.526Z,6.60
2019-05-05T07:34:24.277Z,6.40
2019-05-05T07:36:54.843Z,6.60
2019-05-05T07:39:23.811Z,6.30
2019-05-05T07:41:54.193Z,6.40
2019-05-05T07:44:29.072Z,6.30
2019-05-05T07:46:54.337Z,6.20
2019-05-05T07:49:24.885Z,6.40
2019-05-05T07:51:54.758Z,6.50
2019-05-05T07:54:23.806Z,6.50
2019-05-05T07:56:53.991Z,6.40
2019-05-05T07:59:23.834Z,6.40
2019-05-05T08:01:54.605Z,6.30
2019-05-05T08:04:24.270Z,6.40
2019-05-05T08:06:53.849Z,6.60
2019-05-05T08:09:24.687Z,6.40
2019-05-05T08:11:54.275Z,6.50
2019-05-05T08:14:24.569Z,6.60
2019-05-05T08:16:54.856Z,6.70
2019-05-05T08:19:37.047Z,6.60
2019-05-05T08:22:05.687Z,6.50
2019-05-05T08:24:41.569Z,6.70
2019-05-05T08:27:14.336Z,6.80
2019-05-05T08:29:43.954Z,6.80
2019-05-05T08:32:26.321Z,6.80
2019-05-05T08:35:00.366Z,6.90
2019-05-05T08:37:25.363Z,7.10
2019-05-05T08:39:54.074Z,7.10
2019-05-05T08:42:24.669Z,7.00
2019-05-05T08:44:53.861Z,7.40
2019-05-05T08:47:24.454Z,7.50
2019-05-05T08:49:58.671Z,8.00
2019-05-05T08:52:27.839Z,8.00
2019-05-05T08:54:56.276Z,7.60
2019-05-05T08:57:24.707Z,7.90
2019-05-05T08:59:54.597Z,7.60
2019-05-05T09:02:23.904Z,7.40
2019-05-05T09:04:53.788Z,7.20
2019-05-05T09:07:24.170Z,7.30
2019-05-05T09:09:54.491Z,7.10
2019-05-05T09:12:24.295Z,7.40
2019-05-05T09:14:53.871Z,7.50
2019-05-05T09:17:24.380Z,6.90
2019-05-05T09:19:53.730Z,7.00
2019-05-05T09:22:24.405Z,6.90
2019-05-05T09:25:04.320Z,7.00
2019-05-05T09:27:40.116Z,7.30
2019-05-05T09:30:10.918Z,7.90
2019-05-05T09:32:40.916Z,7.80
2019-05-05T09:35:09.792Z,8.10
2019-05-05T09:37:37.432Z,8.00
2019-05-05T09:40:09.682Z,8.10
2019-05-05T09:42:38.495Z,7.90
2019-05-05T09:45:07.933Z,8.20
2019-05-05T09:47:36.459Z,8.50
2019-05-05T09:50:06.703Z,8.70
2019-05-05T09:52:35.128Z,8.70
2019-05-05T09:55:06.635Z,8.50
2019-05-05T09:57:36.083Z,8.60
2019-05-05T10:00:08.196Z,8.60
2019-05-05T10:06:17.703Z,8.80
2019-05-05T10:08:46.139Z,8.70
2019-05-05T10:11:16.450Z,9.10
2019-05-05T10:13:45.154Z,9.20
2019-05-05T10:16:14.416Z,9.00
2019-05-05T10:18:44.678Z,9.00
2019-05-05T10:21:13.864Z,8.70
2019-05-05T10:23:44.127Z,8.60
2019-05-05T10:26:14.948Z,9.00
2019-05-05T10:28:44.460Z,8.50
2019-05-05T10:31:13.823Z,8.80
2019-05-05T10:33:46.850Z,9.10
2019-05-05T10:36:15.272Z,9.00
2019-05-05T10:38:45.404Z,8.90
2019-05-05T10:41:13.954Z,9.00
2019-05-05T10:43:43.697Z,9.10
2019-05-05T10:46:14.229Z,8.80
2019-05-05T10:48:44.456Z,9.10
2019-05-05T10:51:12.791Z,9.20
2019-05-05T10:53:41.213Z,9.10
2019-05-05T10:56:09.742Z,9.10
2019-05-05T10:58:38.512Z,9.40
2019-05-05T11:01:07.025Z,9.20
2019-05-05T11:03:35.614Z,8.90
2019-05-05T11:06:04.643Z,9.20
2019-05-05T11:08:34.770Z,9.30
2019-05-05T11:11:04.212Z,9.50
2019-05-05T11:13:34.478Z,9.20
2019-05-05T11:16:03.987Z,8.90
2019-05-05T11:18:34.609Z,9.10
2019-05-05T11:21:04.058Z,9.00
2019-05-05T11:23:34.644Z,8.80
2019-05-05T11:26:03.410Z,9.10
2019-05-05T11:28:33.993Z,9.60
2019-05-05T11:31:04.461Z,9.10
2019-05-05T11:33:34.751Z,8.60
2019-05-05T11:36:07.825Z,9.00
2019-05-05T11:38:36.156Z,9.20
2019-05-05T11:41:05.000Z,9.10
2019-05-05T11:43:33.911Z,8.90
2019-05-05T11:46:02.471Z,8.90
2019-05-05T11:48:34.811Z,9.10
2019-05-05T11:51:04.547Z,9.60
2019-05-05T11:53:33.961Z,9.20
2019-05-05T11:56:04.204Z,9.30
2019-05-05T11:58:34.103Z,9.40
2019-05-05T12:01:03.721Z,9.60
2019-05-05T12:03:33.957Z,9.80
2019-05-05T12:06:03.926Z,9.20
2019-05-05T12:08:34.491Z,9.20
2019-05-05T12:11:04.827Z,9.70
2019-05-05T12:13:33.947Z,10.00
2019-05-05T12:16:04.620Z,9.40
2019-05-05T12:18:34.269Z,9.10
2019-05-05T12:21:05.155Z,9.10
2019-05-05T12:23:34.148Z,9.20
2019-05-05T12:26:04.791Z,10.10
2019-05-05T12:28:37.706Z,10.40
2019-05-05T12:31:14.117Z,9.80
2019-05-05T12:33:44.190Z,9.50
2019-05-05T12:36:14.925Z,9.80
2019-05-05T12:38:43.981Z,10.00
2019-05-05T12:41:14.761Z,10.10
2019-05-05T12:43:44.709Z,9.70
2019-05-05T12:46:14.845Z,9.90
2019-05-05T12:48:44.960Z,9.90
2019-05-05T12:51:14.693Z,9.80
2019-05-05T12:53:43.355Z,9.40
2019-05-05T12:56:11.876Z,9.40
2019-05-05T12:58:41.223Z,9.60
2019-05-05T13:01:14.493Z,10.10
2019-05-05T13:03:43.795Z,10.10
2019-05-05T13:06:14.588Z,10.10
2019-05-05T13:08:44.521Z,9.90
2019-05-05T13:11:13.761Z,9.50
2019-05-05T13:13:43.975Z,9.30
2019-05-05T13:16:13.626Z,9.40
2019-05-05T13:18:42.547Z,9.90
2019-05-05T13:21:30.219Z,10.20
2019-05-05T13:24:00.311Z,10.10
2019-05-05T13:26:46.540Z,9.60
2019-05-05T13:29:15.302Z,9.50
2019-05-05T13:31:45.341Z,9.70
2019-05-05T13:34:13.827Z,9.60
2019-05-05T13:36:44.172Z,9.40
2019-05-05T13:39:14.390Z,9.70
2019-05-05T13:41:44.835Z,9.60
2019-05-05T13:44:19.127Z,9.80
2019-05-05T13:46:47.840Z,9.50
2019-05-05T13:49:17.913Z,9.40
2019-05-05T13:51:46.413Z,9.50
2019-05-05T13:54:16.198Z,9.60
2019-05-05T13:56:44.747Z,9.50
2019-05-05T13:59:14.084Z,9.60
2019-05-05T14:01:44.760Z,9.80
2019-05-05T14:04:13.122Z,9.80
2019-05-05T14:06:41.653Z,9.70
2019-05-05T14:09:10.811Z,9.80
2019-05-05T14:11:39.434Z,9.60
2019-05-05T14:14:07.851Z,9.60
2019-05-05T14:16:36.944Z,9.30
2019-05-05T14:19:05.527Z,9.30
2019-05-05T14:21:34.078Z,9.30
2019-05-05T14:24:04.322Z,9.50
2019-05-05T14:26:35.198Z,9.70
2019-05-05T14:29:04.283Z,9.70
2019-05-05T14:36:44.151Z,9.80
2019-05-05T14:39:14.972Z,10.10
2019-05-05T14:41:44.573Z,10.10
2019-05-05T14:44:13.496Z,10.00
2019-05-05T14:46:42.124Z,10.00
2019-05-05T14:49:10.620Z,9.80
2019-05-05T14:51:40.055Z,9.80
2019-05-05T14:54:10.800Z,9.60
2019-05-05T14:56:39.023Z,9.60
2019-05-05T14:59:09.067Z,9.70
2019-05-05T15:01:37.504Z,9.80
2019-05-05T15:04:06.268Z,9.90
2019-05-05T15:06:39.153Z,10.30
2019-05-05T15:09:09.867Z,10.10
2019-05-05T15:11:49.367Z,10.20
2019-05-05T15:14:17.868Z,10.00
2019-05-05T15:16:46.297Z,9.80
2019-05-05T15:19:14.834Z,9.60
2019-05-05T15:21:44.317Z,9.50
2019-05-05T15:24:13.821Z,9.50
2019-05-05T15:26:50.626Z,9.40
2019-05-05T15:29:12.903Z,9.60
2019-05-05T15:31:43.544Z,9.70
2019-05-05T15:34:12.258Z,9.90
2019-05-05T15:36:41.103Z,10.20
2019-05-05T15:39:09.711Z,10.00
2019-05-05T15:41:38.247Z,9.70
2019-05-05T15:44:07.860Z,9.60
2019-05-05T15:49:05.457Z,9.10
2019-05-05T15:54:03.844Z,9.20
2019-05-05T15:56:34.060Z,9.40
2019-05-05T15:59:02.840Z,9.30
2019-05-05T16:01:31.375Z,9.40
2019-05-05T16:03:59.872Z,9.50
2019-05-05T16:06:28.584Z,9.40
2019-05-05T16:08:57.044Z,9.40
2019-05-05T16:11:26.980Z,9.40
2019-05-05T16:13:55.654Z,9.50
2019-05-05T16:16:30.202Z,9.40
2019-05-05T16:19:05.633Z,9.40
2019-05-05T16:21:38.707Z,9.50
2019-05-05T16:24:08.924Z,9.40
2019-05-05T16:26:37.500Z,9.40
2019-05-05T16:29:06.333Z,9.60
2019-05-05T16:31:34.830Z,9.70
2019-05-05T16:34:03.853Z,9.70
2019-05-05T16:36:34.036Z,9.60
2019-05-05T16:39:02.779Z,9.50
2019-05-05T16:41:31.506Z,9.40
2019-05-05T16:44:00.367Z,9.40
2019-05-05T16:51:27.525Z,9.60
2019-05-05T16:53:57.713Z,9.50
2019-05-05T16:56:25.484Z,9.40
2019-05-05T16:58:53.907Z,9.50
2019-05-05T17:01:22.663Z,9.70
2019-05-05T17:03:51.511Z,9.70
2019-05-05T17:06:20.480Z,9.60
2019-05-05T17:08:49.328Z,9.60
2019-05-05T17:11:18.199Z,9.50
2019-05-05T17:13:48.556Z,9.60
2019-05-05T17:19:06.893Z,9.40
2019-05-05T17:21:53.642Z,9.30
2019-05-05T17:24:23.985Z,9.30
2019-05-05T17:26:54.890Z,9.40
2019-05-05T17:29:23.526Z,9.30
2019-05-05T17:31:53.818Z,9.20
2019-05-05T17:34:24.468Z,9.20
2019-05-05T17:36:53.597Z,9.00
2019-05-05T17:39:24.003Z,9.00
2019-05-05T17:41:54.304Z,9.00
2019-05-05T17:44:27.353Z,8.90
2019-05-05T17:47:05.722Z,8.90
2019-05-05T17:49:54.128Z,8.70
2019-05-05T17:52:36.536Z,8.60
2019-05-05T17:55:24.280Z,8.60
2019-05-05T17:58:01.534Z,8.60
2019-05-05T18:00:24.358Z,8.60
2019-05-05T18:02:53.580Z,8.30
2019-05-05T18:05:38.910Z,8.30
2019-05-05T18:08:07.405Z,8.20
2019-05-05T18:10:37.488Z,8.20
2019-05-05T18:13:08.116Z,8.10
2019-05-05T18:15:49.492Z,8.10
2019-05-05T18:18:18.364Z,7.90
2019-05-05T18:20:47.121Z,7.90
2019-05-05T18:23:15.636Z,7.90
2019-05-05T18:25:44.234Z,7.90
2019-05-05T18:28:19.481Z,7.80
2019-05-05T18:30:44.392Z,7.80
2019-05-05T18:33:13.679Z,7.80
2019-05-05T18:35:44.268Z,7.70
2019-05-05T18:38:13.762Z,7.60
2019-05-05T18:40:43.431Z,7.60
2019-05-05T18:43:13.802Z,7.50
2019-05-05T18:45:44.185Z,7.50
2019-05-05T18:48:13.961Z,7.50
2019-05-05T18:50:42.851Z,7.30
2019-05-05T18:53:11.299Z,7.30
2019-05-05T18:55:40.104Z,7.30
2019-05-05T18:58:08.567Z,7.30
2019-05-05T19:00:48.283Z,7.30
2019-05-05T19:03:20.720Z,7.20
2019-05-05T19:05:56.921Z,7.20
2019-05-05T19:08:27.003Z,7.20
2019-05-05T19:10:55.513Z,7.10
2019-05-05T19:13:24.558Z,7.00
2019-05-05T19:15:53.900Z,7.00
2019-05-05T19:18:24.320Z,7.00
2019-05-05T19:21:00.411Z,7.00
2019-05-05T19:23:29.186Z,6.90
2019-05-05T19:25:57.691Z,6.90
2019-05-05T19:28:41.039Z,6.90
2019-05-05T19:30:57.667Z,6.80
2019-05-05T19:33:26.167Z,6.80
2019-05-05T19:35:54.705Z,6.80
2019-05-05T19:38:23.696Z,6.80
2019-05-05T19:40:55.993Z,6.80
2019-05-05T19:43:24.447Z,6.80
2019-05-05T19:45:55.088Z,6.70
2019-05-05T19:48:24.469Z,6.70
2019-05-05T19:50:54.696Z,6.60
2019-05-05T19:53:24.500Z,6.60
2019-05-05T19:55:56.743Z,6.60
2019-05-05T20:00:58.436Z,6.30
2019-05-05T20:03:27.048Z,6.30
2019-05-05T20:05:55.681Z,6.30
2019-05-05T20:08:24.233Z,6.20
2019-05-05T20:10:54.178Z,6.10
2019-05-05T20:15:53.757Z,6.10
2019-05-05T20:18:22.335Z,6.10
2019-05-05T20:21:03.126Z,6.00
2019-05-05T20:23:22.008Z,6.00
2019-05-05T20:25:50.776Z,5.90
2019-05-05T20:28:19.221Z,5.90
2019-05-05T20:30:47.737Z,5.90
2019-05-05T20:33:26.460Z,5.80
2019-05-05T20:35:57.896Z,5.80
2019-05-05T20:38:37.472Z,5.90
2019-05-05T20:41:10.493Z,5.80
2019-05-05T20:43:39.215Z,5.90
2019-05-05T20:46:09.376Z,5.80
2019-05-05T20:48:41.013Z,5.70
2019-05-05T20:51:08.167Z,5.70
2019-05-05T20:53:37.863Z,5.70
2019-05-05T20:56:06.443Z,5.70
2019-05-05T20:58:34.938Z,5.60
2019-05-05T21:01:04.530Z,5.60
2019-05-05T21:03:34.722Z,5.70
2019-05-05T21:06:04.446Z,5.60
2019-05-05T21:08:34.755Z,5.60
2019-05-05T21:11:04.370Z,5.60
2019-05-05T21:13:34.143Z,5.60
2019-05-05T21:16:03.011Z,5.60
2019-05-05T21:18:31.565Z,5.60
2019-05-05T21:21:01.916Z,5.60
2019-05-05T21:23:34.117Z,5.60
2019-05-05T21:26:04.446Z,5.60
2019-05-05T21:28:33.730Z,5.70
2019-05-05T21:31:02.183Z,5.60
2019-05-05T21:33:30.780Z,5.60
2019-05-05T21:35:59.329Z,5.60
2019-05-05T21:38:27.772Z,5.60
2019-05-05T21:40:56.208Z,5.60
2019-05-05T21:43:24.991Z,5.60
2019-05-05T21:45:53.835Z,5.60
2019-05-05T21:50:56.965Z,5.70
2019-05-05T21:53:29.926Z,5.60
2019-05-05T21:55:59.223Z,5.50
2019-05-05T21:58:29.388Z,5.60
2019-05-05T22:01:04.475Z,5.50
2019-05-05T22:03:39.357Z,5.40
2019-05-05T22:06:07.940Z,5.50
2019-05-05T22:08:36.364Z,5.40
2019-05-05T22:11:05.419Z,5.40
2019-05-05T22:13:36.196Z,5.40
2019-05-05T22:16:04.286Z,5.40
2019-05-05T22:18:33.069Z,5.40
2019-05-05T22:21:04.454Z,5.40
2019-05-05T22:23:34.010Z,5.40
2019-05-05T22:26:04.232Z,5.40
2019-05-05T22:28:34.022Z,5.40
2019-05-05T22:31:04.751Z,5.40
2019-05-05T22:33:33.995Z,5.30
2019-05-05T22:36:04.373Z,5.30
2019-05-05T22:38:33.924Z,5.30
2019-05-05T22:41:02.659Z,5.20
2019-05-05T22:43:31.328Z,5.10
2019-05-05T22:46:00.116Z,5.10
2019-05-05T22:48:28.654Z,5.00
2019-05-05T22:50:57.096Z,5.00
2019-05-05T22:53:25.528Z,5.00
2019-05-05T22:55:54.127Z,5.00
2019-05-05T22:58:24.008Z,4.90
2019-05-05T23:00:54.687Z,4.80
2019-05-05T23:03:30.320Z,4.70
2019-05-05T23:06:04.331Z,4.70
2019-05-05T23:08:34.894Z,4.70
2019-05-05T23:11:04.062Z,4.70
2019-05-05T23:13:34.163Z,4.60
2019-05-05T23:16:10.441Z,4.60
2019-05-05T23:18:39.676Z,4.50
2019-05-05T23:21:18.567Z,4.60
2019-05-05T23:24:00.303Z,4.60
2019-05-05T23:26:36.035Z,4.60
2019-05-05T23:29:04.971Z,4.50
2019-05-05T23:31:33.943Z,4.40
2019-05-05T23:34:03.976Z,4.40
2019-05-05T23:36:33.943Z,4.30
2019-05-05T23:39:04.414Z,4.30
2019-05-05T23:41:34.866Z,4.10
2019-05-05T23:44:04.522Z,4.10
2019-05-05T23:46:34.832Z,4.10
2019-05-05T23:49:04.269Z,4.00
2019-05-05T23:51:34.668Z,4.00
2019-05-05T23:54:04.271Z,3.90
2019-05-05T23:56:34.992Z,3.80
2019-05-05T23:59:04.268Z,3.80
